sensor_id;sensor_type;location;lat;lon;timestamp;temperature;humidity
8105;DHT22;4095;48.942;9.104;2023-03-23T00:02:26;16.50;87.80
8105;DHT22;4095;48.942;9.104;2023-03-23T00:04:52;16.50;87.80
8105;DHT22;4095;48.942;9.104;2023-03-23T00:07:22;16.50;87.70
8105;DHT22;4095;48.942;9.104;2023-03-23T00:09:48;16.60;87.60
8105;DHT22;4095;48.942;9.104;2023-03-23T00:12:25;16.60;87.40
8105;DHT22;4095;48.942;9.104;2023-03-23T00:15:06;16.60;87.40
8105;DHT22;4095;48.942;9.104;2023-03-23T00:17:32;16.60;87.60
8105;DHT22;4095;48.942;9.104;2023-03-23T00:19:58;16.60;87.20
8105;DHT22;4095;48.942;9.104;2023-03-23T00:22:27;16.60;87.60
8105;DHT22;4095;48.942;9.104;2023-03-23T00:24:54;16.60;87.50
8105;DHT22;4095;48.942;9.104;2023-03-23T00:27:21;16.70;87.50
8105;DHT22;4095;48.942;9.104;2023-03-23T00:29:51;16.70;87.50
8105;DHT22;4095;48.942;9.104;2023-03-23T00:32:22;16.70;87.20
8105;DHT22;4095;48.942;9.104;2023-03-23T00:34:53;16.70;87.30
8105;DHT22;4095;48.942;9.104;2023-03-23T00:37:19;16.70;87.10
8105;DHT22;4095;48.942;9.104;2023-03-23T00:39:45;16.70;86.50
8105;DHT22;4095;48.942;9.104;2023-03-23T00:42:13;16.80;86.60
8105;DHT22;4095;48.942;9.104;2023-03-23T00:44:39;16.80;86.80
8105;DHT22;4095;48.942;9.104;2023-03-23T00:47:05;16.80;87.20
8105;DHT22;4095;48.942;9.104;2023-03-23T00:49:31;16.80;87.00
8105;DHT22;4095;48.942;9.104;2023-03-23T00:52:01;16.80;87.00
8105;DHT22;4095;48.942;9.104;2023-03-23T00:54:27;16.80;87.40
8105;DHT22;4095;48.942;9.104;2023-03-23T00:56:53;16.80;87.20
8105;DHT22;4095;48.942;9.104;2023-03-23T00:59:19;16.80;87.50
8105;DHT22;4095;48.942;9.104;2023-03-23T01:01:45;16.70;87.90
8105;DHT22;4095;48.942;9.104;2023-03-23T01:04:11;16.70;88.20
8105;DHT22;4095;48.942;9.104;2023-03-23T01:06:39;16.60;88.60
8105;DHT22;4095;48.942;9.104;2023-03-23T01:09:10;16.50;88.80
8105;DHT22;4095;48.942;9.104;2023-03-23T01:11:36;16.50;89.00
8105;DHT22;4095;48.942;9.104;2023-03-23T01:14:04;16.50;89.10
8105;DHT22;4095;48.942;9.104;2023-03-23T01:16:30;16.50;89.00
8105;DHT22;4095;48.942;9.104;2023-03-23T01:18:56;16.50;88.80
8105;DHT22;4095;48.942;9.104;2023-03-23T01:21:22;16.50;88.80
8105;DHT22;4095;48.942;9.104;2023-03-23T01:23:48;16.40;88.80
8105;DHT22;4095;48.942;9.104;2023-03-23T01:26:23;16.50;89.00
8105;DHT22;4095;48.942;9.104;2023-03-23T01:28:50;16.50;89.00
8105;DHT22;4095;48.942;9.104;2023-03-23T01:31:19;16.40;88.90
8105;DHT22;4095;48.942;9.104;2023-03-23T01:33:45;16.40;88.80
8105;DHT22;4095;48.942;9.104;2023-03-23T01:36:16;16.50;89.10
8105;DHT22;4095;48.942;9.104;2023-03-23T01:38:44;16.40;89.10
8105;DHT22;4095;48.942;9.104;2023-03-23T01:41:10;16.40;89.40
8105;DHT22;4095;48.942;9.104;2023-03-23T01:43:52;16.40;89.70
8105;DHT22;4095;48.942;9.104;2023-03-23T01:46:18;16.40;89.80
8105;DHT22;4095;48.942;9.104;2023-03-23T01:48:43;16.30;89.90
8105;DHT22;4095;48.942;9.104;2023-03-23T01:51:14;16.30;90.00
8105;DHT22;4095;48.942;9.104;2023-03-23T01:53:46;16.30;90.00
8105;DHT22;4095;48.942;9.104;2023-03-23T01:56:17;16.30;90.10
8105;DHT22;4095;48.942;9.104;2023-03-23T01:58:46;16.30;89.80
8105;DHT22;4095;48.942;9.104;2023-03-23T02:01:13;16.40;90.00
8105;DHT22;4095;48.942;9.104;2023-03-23T02:03:43;16.30;89.90
8105;DHT22;4095;48.942;9.104;2023-03-23T02:06:11;16.30;89.80
8105;DHT22;4095;48.942;9.104;2023-03-23T02:08:38;16.20;89.80
8105;DHT22;4095;48.942;9.104;2023-03-23T02:11:18;16.20;89.40
8105;DHT22;4095;48.942;9.104;2023-03-23T02:13:44;16.20;89.20
8105;DHT22;4095;48.942;9.104;2023-03-23T02:19:00;16.10;89.60
8105;DHT22;4095;48.942;9.104;2023-03-23T02:24:25;16.10;89.80
8105;DHT22;4095;48.942;9.104;2023-03-23T02:35:52;16.20;90.00
8105;DHT22;4095;48.942;9.104;2023-03-23T02:39:08;16.20;89.80
8105;DHT22;4095;48.942;9.104;2023-03-23T02:42:18;16.20;89.80
8105;DHT22;4095;48.942;9.104;2023-03-23T02:44:26;16.10;89.20
8105;DHT22;4095;48.942;9.104;2023-03-23T02:46:57;16.10;89.20
8105;DHT22;4095;48.942;9.104;2023-03-23T02:49:24;16.10;89.20
8105;DHT22;4095;48.942;9.104;2023-03-23T02:51:52;16.20;89.20
8105;DHT22;4095;48.942;9.104;2023-03-23T02:54:20;16.30;88.90
8105;DHT22;4095;48.942;9.104;2023-03-23T02:56:51;16.30;88.60
8105;DHT22;4095;48.942;9.104;2023-03-23T02:59:17;16.20;88.80
8105;DHT22;4095;48.942;9.104;2023-03-23T03:04:14;16.20;88.60
8105;DHT22;4095;48.942;9.104;2023-03-23T03:12:43;16.30;89.40
8105;DHT22;4095;48.942;9.104;2023-03-23T03:18:00;16.20;90.00
8105;DHT22;4095;48.942;9.104;2023-03-23T03:20:29;16.20;89.90
8105;DHT22;4095;48.942;9.104;2023-03-23T03:22:55;16.10;90.00
8105;DHT22;4095;48.942;9.104;2023-03-23T03:25:23;16.10;90.10
8105;DHT22;4095;48.942;9.104;2023-03-23T03:27:50;16.10;90.10
8105;DHT22;4095;48.942;9.104;2023-03-23T03:30:21;16.10;90.20
8105;DHT22;4095;48.942;9.104;2023-03-23T03:32:51;16.10;90.10
8105;DHT22;4095;48.942;9.104;2023-03-23T03:35:22;16.10;90.10
8105;DHT22;4095;48.942;9.104;2023-03-23T03:37:48;16.10;90.20
8105;DHT22;4095;48.942;9.104;2023-03-23T03:40:16;16.10;90.00
8105;DHT22;4095;48.942;9.104;2023-03-23T03:42:43;16.10;89.20
8105;DHT22;4095;48.942;9.104;2023-03-23T03:45:12;16.20;89.40
8105;DHT22;4095;48.942;9.104;2023-03-23T03:47:38;16.20;89.20
8105;DHT22;4095;48.942;9.104;2023-03-23T03:50:04;16.20;89.10
8105;DHT22;4095;48.942;9.104;2023-03-23T03:52:31;16.20;88.70
8105;DHT22;4095;48.942;9.104;2023-03-23T03:54:57;16.20;88.80
8105;DHT22;4095;48.942;9.104;2023-03-23T03:57:23;16.20;88.70
8105;DHT22;4095;48.942;9.104;2023-03-23T03:59:49;16.20;88.70
8105;DHT22;4095;48.942;9.104;2023-03-23T04:02:15;16.20;88.60
8105;DHT22;4095;48.942;9.104;2023-03-23T04:04:46;16.30;89.00
8105;DHT22;4095;48.942;9.104;2023-03-23T04:07:11;16.30;89.00
8105;DHT22;4095;48.942;9.104;2023-03-23T04:09:45;16.30;89.00
8105;DHT22;4095;48.942;9.104;2023-03-23T04:12:15;16.20;88.70
8105;DHT22;4095;48.942;9.104;2023-03-23T04:14:41;16.20;89.00
8105;DHT22;4095;48.942;9.104;2023-03-23T04:17:06;16.20;88.90
8105;DHT22;4095;48.942;9.104;2023-03-23T04:19:35;16.20;88.70
8105;DHT22;4095;48.942;9.104;2023-03-23T04:22:02;16.30;88.30
8105;DHT22;4095;48.942;9.104;2023-03-23T04:24:28;16.30;88.60
8105;DHT22;4095;48.942;9.104;2023-03-23T04:26:57;16.30;88.50
8105;DHT22;4095;48.942;9.104;2023-03-23T04:29:23;16.30;88.50
8105;DHT22;4095;48.942;9.104;2023-03-23T04:31:48;16.30;88.50
8105;DHT22;4095;48.942;9.104;2023-03-23T04:34:16;16.30;88.50
8105;DHT22;4095;48.942;9.104;2023-03-23T04:36:43;16.40;88.60
8105;DHT22;4095;48.942;9.104;2023-03-23T04:39:09;16.30;88.50
8105;DHT22;4095;48.942;9.104;2023-03-23T04:41:39;16.30;88.90
8105;DHT22;4095;48.942;9.104;2023-03-23T04:44:06;16.30;88.90
8105;DHT22;4095;48.942;9.104;2023-03-23T04:46:32;16.30;88.80
8105;DHT22;4095;48.942;9.104;2023-03-23T04:48:59;16.30;88.80
8105;DHT22;4095;48.942;9.104;2023-03-23T04:51:25;16.40;89.20
8105;DHT22;4095;48.942;9.104;2023-03-23T04:53:52;16.40;89.20
8105;DHT22;4095;48.942;9.104;2023-03-23T04:56:18;16.40;89.30
8105;DHT22;4095;48.942;9.104;2023-03-23T04:58:44;16.40;89.30
8105;DHT22;4095;48.942;9.104;2023-03-23T05:01:10;16.40;89.30
8105;DHT22;4095;48.942;9.104;2023-03-23T05:03:39;16.40;89.40
8105;DHT22;4095;48.942;9.104;2023-03-23T05:06:05;16.40;89.50
8105;DHT22;4095;48.942;9.104;2023-03-23T05:08:31;16.50;89.60
8105;DHT22;4095;48.942;9.104;2023-03-23T05:10:59;16.50;89.60
8105;DHT22;4095;48.942;9.104;2023-03-23T05:13:25;16.50;89.60
8105;DHT22;4095;48.942;9.104;2023-03-23T05:15:52;16.50;89.60
8105;DHT22;4095;48.942;9.104;2023-03-23T05:18:17;16.50;89.50
8105;DHT22;4095;48.942;9.104;2023-03-23T05:20:43;16.50;89.60
8105;DHT22;4095;48.942;9.104;2023-03-23T05:23:09;16.50;89.50
8105;DHT22;4095;48.942;9.104;2023-03-23T05:25:36;16.50;89.60
8105;DHT22;4095;48.942;9.104;2023-03-23T05:28:06;16.50;89.20
8105;DHT22;4095;48.942;9.104;2023-03-23T05:30:32;16.60;88.90
8105;DHT22;4095;48.942;9.104;2023-03-23T05:32:57;16.60;89.00
8105;DHT22;4095;48.942;9.104;2023-03-23T05:35:23;16.60;88.50
8105;DHT22;4095;48.942;9.104;2023-03-23T05:37:48;16.60;88.80
8105;DHT22;4095;48.942;9.104;2023-03-23T05:40:14;16.70;89.00
8105;DHT22;4095;48.942;9.104;2023-03-23T05:42:40;16.70;88.70
8105;DHT22;4095;48.942;9.104;2023-03-23T05:45:09;16.60;88.80
8105;DHT22;4095;48.942;9.104;2023-03-23T05:47:36;16.60;88.90
8105;DHT22;4095;48.942;9.104;2023-03-23T05:50:03;16.60;89.00
8105;DHT22;4095;48.942;9.104;2023-03-23T05:52:30;16.50;88.90
8105;DHT22;4095;48.942;9.104;2023-03-23T05:54:58;16.60;88.80
8105;DHT22;4095;48.942;9.104;2023-03-23T05:57:23;16.60;88.40
8105;DHT22;4095;48.942;9.104;2023-03-23T05:59:49;16.60;88.30
8105;DHT22;4095;48.942;9.104;2023-03-23T06:02:15;16.60;88.20
8105;DHT22;4095;48.942;9.104;2023-03-23T06:04:41;16.60;88.20
8105;DHT22;4095;48.942;9.104;2023-03-23T06:07:08;16.70;88.30
8105;DHT22;4095;48.942;9.104;2023-03-23T06:09:38;16.60;88.20
8105;DHT22;4095;48.942;9.104;2023-03-23T06:12:03;16.70;87.90
8105;DHT22;4095;48.942;9.104;2023-03-23T06:14:30;16.70;87.90
8105;DHT22;4095;48.942;9.104;2023-03-23T06:16:56;16.70;88.10
8105;DHT22;4095;48.942;9.104;2023-03-23T06:19:22;16.70;88.30
8105;DHT22;4095;48.942;9.104;2023-03-23T06:21:48;16.70;88.50
8105;DHT22;4095;48.942;9.104;2023-03-23T06:24:14;16.70;88.40
8105;DHT22;4095;48.942;9.104;2023-03-23T06:26:40;16.70;89.30
8105;DHT22;4095;48.942;9.104;2023-03-23T06:29:09;16.60;89.70
8105;DHT22;4095;48.942;9.104;2023-03-23T06:31:40;16.70;89.80
8105;DHT22;4095;48.942;9.104;2023-03-23T06:34:07;16.70;90.00
8105;DHT22;4095;48.942;9.104;2023-03-23T06:36:34;16.70;91.30
8105;DHT22;4095;48.942;9.104;2023-03-23T06:39:00;16.80;90.90
8105;DHT22;4095;48.942;9.104;2023-03-23T06:41:26;16.80;91.00
8105;DHT22;4095;48.942;9.104;2023-03-23T06:43:52;16.80;91.80
8105;DHT22;4095;48.942;9.104;2023-03-23T06:46:18;16.80;90.90
8105;DHT22;4095;48.942;9.104;2023-03-23T06:48:43;16.80;91.00
8105;DHT22;4095;48.942;9.104;2023-03-23T06:51:09;16.80;90.80
8105;DHT22;4095;48.942;9.104;2023-03-23T06:53:34;16.80;90.50
8105;DHT22;4095;48.942;9.104;2023-03-23T06:56:00;16.90;91.10
8105;DHT22;4095;48.942;9.104;2023-03-23T06:58:26;16.90;91.30
8105;DHT22;4095;48.942;9.104;2023-03-23T07:00:56;16.90;91.80
8105;DHT22;4095;48.942;9.104;2023-03-23T07:03:22;17.00;92.00
8105;DHT22;4095;48.942;9.104;2023-03-23T07:05:48;16.90;91.80
8105;DHT22;4095;48.942;9.104;2023-03-23T07:08:15;16.90;91.80
8105;DHT22;4095;48.942;9.104;2023-03-23T07:10:41;16.90;91.80
8105;DHT22;4095;48.942;9.104;2023-03-23T07:13:06;16.90;91.60
8105;DHT22;4095;48.942;9.104;2023-03-23T07:15:32;16.90;91.50
8105;DHT22;4095;48.942;9.104;2023-03-23T07:17:58;16.90;91.90
8105;DHT22;4095;48.942;9.104;2023-03-23T07:20:23;16.90;92.40
8105;DHT22;4095;48.942;9.104;2023-03-23T07:22:49;16.90;92.90
8105;DHT22;4095;48.942;9.104;2023-03-23T07:25:16;16.90;92.60
8105;DHT22;4095;48.942;9.104;2023-03-23T07:27:41;16.90;93.20
8105;DHT22;4095;48.942;9.104;2023-03-23T07:30:09;16.80;92.90
8105;DHT22;4095;48.942;9.104;2023-03-23T07:32:35;16.80;92.70
8105;DHT22;4095;48.942;9.104;2023-03-23T07:35:01;16.80;93.00
8105;DHT22;4095;48.942;9.104;2023-03-23T07:37:27;16.90;92.80
8105;DHT22;4095;48.942;9.104;2023-03-23T07:39:53;16.90;92.60
8105;DHT22;4095;48.942;9.104;2023-03-23T07:42:19;16.90;92.80
8105;DHT22;4095;48.942;9.104;2023-03-23T07:44:44;16.90;92.60
8105;DHT22;4095;48.942;9.104;2023-03-23T07:47:10;17.00;91.80
8105;DHT22;4095;48.942;9.104;2023-03-23T07:49:36;17.00;91.80
8105;DHT22;4095;48.942;9.104;2023-03-23T07:52:02;17.10;91.90
8105;DHT22;4095;48.942;9.104;2023-03-23T07:54:28;17.20;91.90
8105;DHT22;4095;48.942;9.104;2023-03-23T07:56:54;17.30;91.70
8105;DHT22;4095;48.942;9.104;2023-03-23T07:59:20;17.40;92.20
8105;DHT22;4095;48.942;9.104;2023-03-23T08:01:45;17.50;92.00
8105;DHT22;4095;48.942;9.104;2023-03-23T08:04:11;17.50;91.60
8105;DHT22;4095;48.942;9.104;2023-03-23T08:06:39;17.50;91.70
8105;DHT22;4095;48.942;9.104;2023-03-23T08:09:05;17.40;92.00
8105;DHT22;4095;48.942;9.104;2023-03-23T08:11:34;17.50;92.20
8105;DHT22;4095;48.942;9.104;2023-03-23T08:14:00;17.50;92.30
8105;DHT22;4095;48.942;9.104;2023-03-23T08:16:27;17.50;92.50
8105;DHT22;4095;48.942;9.104;2023-03-23T08:18:53;17.40;92.70
8105;DHT22;4095;48.942;9.104;2023-03-23T08:21:18;17.50;92.70
8105;DHT22;4095;48.942;9.104;2023-03-23T08:23:44;17.50;93.10
8105;DHT22;4095;48.942;9.104;2023-03-23T08:26:10;17.50;93.20
8105;DHT22;4095;48.942;9.104;2023-03-23T08:28:37;17.50;93.30
8105;DHT22;4095;48.942;9.104;2023-03-23T08:31:11;17.50;93.00
8105;DHT22;4095;48.942;9.104;2023-03-23T08:33:38;17.50;93.40
8105;DHT22;4095;48.942;9.104;2023-03-23T08:36:04;17.50;93.40
8105;DHT22;4095;48.942;9.104;2023-03-23T08:38:30;17.50;93.40
8105;DHT22;4095;48.942;9.104;2023-03-23T08:41:00;17.40;93.30
8105;DHT22;4095;48.942;9.104;2023-03-23T08:43:26;17.30;93.20
8105;DHT22;4095;48.942;9.104;2023-03-23T08:45:52;17.30;93.60
8105;DHT22;4095;48.942;9.104;2023-03-23T08:48:19;17.30;93.30
8105;DHT22;4095;48.942;9.104;2023-03-23T08:50:44;17.30;93.70
8105;DHT22;4095;48.942;9.104;2023-03-23T08:53:10;17.30;93.70
8105;DHT22;4095;48.942;9.104;2023-03-23T08:55:36;17.20;93.60
8105;DHT22;4095;48.942;9.104;2023-03-23T08:58:02;17.20;93.70
8105;DHT22;4095;48.942;9.104;2023-03-23T09:00:30;17.20;93.80
8105;DHT22;4095;48.942;9.104;2023-03-23T09:02:56;17.20;94.00
8105;DHT22;4095;48.942;9.104;2023-03-23T09:05:24;17.20;94.20
8105;DHT22;4095;48.942;9.104;2023-03-23T09:07:52;17.20;94.00
8105;DHT22;4095;48.942;9.104;2023-03-23T09:10:19;17.30;93.80
8105;DHT22;4095;48.942;9.104;2023-03-23T09:12:46;17.30;94.00
8105;DHT22;4095;48.942;9.104;2023-03-23T09:15:14;17.30;93.30
8105;DHT22;4095;48.942;9.104;2023-03-23T09:17:45;17.30;93.60
8105;DHT22;4095;48.942;9.104;2023-03-23T09:20:13;17.40;93.70
8105;DHT22;4095;48.942;9.104;2023-03-23T09:22:41;17.40;93.30
8105;DHT22;4095;48.942;9.104;2023-03-23T09:25:14;17.50;93.50
8105;DHT22;4095;48.942;9.104;2023-03-23T09:27:42;17.50;93.20
8105;DHT22;4095;48.942;9.104;2023-03-23T09:30:10;17.50;93.20
8105;DHT22;4095;48.942;9.104;2023-03-23T09:32:38;17.50;92.90
8105;DHT22;4095;48.942;9.104;2023-03-23T09:35:06;17.50;93.40
8105;DHT22;4095;48.942;9.104;2023-03-23T09:37:38;17.40;93.20
8105;DHT22;4095;48.942;9.104;2023-03-23T09:40:05;17.40;93.70
8105;DHT22;4095;48.942;9.104;2023-03-23T09:48:08;17.40;94.50
8105;DHT22;4095;48.942;9.104;2023-03-23T09:50:40;17.50;94.50
8105;DHT22;4095;48.942;9.104;2023-03-23T09:53:18;17.60;94.80
8105;DHT22;4095;48.942;9.104;2023-03-23T09:55:44;17.80;94.30
8105;DHT22;4095;48.942;9.104;2023-03-23T10:00:50;18.10;94.10
8105;DHT22;4095;48.942;9.104;2023-03-23T10:03:24;18.10;94.20
8105;DHT22;4095;48.942;9.104;2023-03-23T10:05:53;18.10;93.70
8105;DHT22;4095;48.942;9.104;2023-03-23T10:08:31;18.00;94.10
8105;DHT22;4095;48.942;9.104;2023-03-23T10:11:10;18.00;94.30
8105;DHT22;4095;48.942;9.104;2023-03-23T10:16:09;17.90;94.30
8105;DHT22;4095;48.942;9.104;2023-03-23T10:18:41;17.70;94.40
8105;DHT22;4095;48.942;9.104;2023-03-23T10:21:15;17.60;94.90
8105;DHT22;4095;48.942;9.104;2023-03-23T10:28:54;18.50;94.70
8105;DHT22;4095;48.942;9.104;2023-03-23T10:31:31;19.00;94.50
8105;DHT22;4095;48.942;9.104;2023-03-23T10:34:03;19.40;94.30
8105;DHT22;4095;48.942;9.104;2023-03-23T10:39:16;20.40;93.10
8105;DHT22;4095;48.942;9.104;2023-03-23T10:41:43;20.40;92.80
8105;DHT22;4095;48.942;9.104;2023-03-23T10:44:18;20.10;92.20
8105;DHT22;4095;48.942;9.104;2023-03-23T10:47:01;19.70;92.60
8105;DHT22;4095;48.942;9.104;2023-03-23T10:49:50;19.30;93.20
8105;DHT22;4095;48.942;9.104;2023-03-23T10:52:41;19.00;93.60
8105;DHT22;4095;48.942;9.104;2023-03-23T10:55:18;18.60;94.40
8105;DHT22;4095;48.942;9.104;2023-03-23T10:58:00;18.50;94.50
8105;DHT22;4095;48.942;9.104;2023-03-23T11:00:27;18.50;94.40
8105;DHT22;4095;48.942;9.104;2023-03-23T11:02:59;18.40;94.30
8105;DHT22;4095;48.942;9.104;2023-03-23T11:05:37;18.30;94.20
8105;DHT22;4095;48.942;9.104;2023-03-23T11:08:04;18.20;94.30
8105;DHT22;4095;48.942;9.104;2023-03-23T11:10:38;18.20;94.50
8105;DHT22;4095;48.942;9.104;2023-03-23T11:13:04;18.10;94.40
8105;DHT22;4095;48.942;9.104;2023-03-23T11:15:37;18.00;94.50
8105;DHT22;4095;48.942;9.104;2023-03-23T11:18:19;17.90;94.40
8105;DHT22;4095;48.942;9.104;2023-03-23T11:20:56;17.80;94.50
8105;DHT22;4095;48.942;9.104;2023-03-23T11:23:33;17.70;94.60
8105;DHT22;4095;48.942;9.104;2023-03-23T11:28:37;17.60;94.90
8105;DHT22;4095;48.942;9.104;2023-03-23T11:31:05;17.70;95.00
8105;DHT22;4095;48.942;9.104;2023-03-23T11:33:55;17.70;95.10
8105;DHT22;4095;48.942;9.104;2023-03-23T11:36:33;17.80;95.20
8105;DHT22;4095;48.942;9.104;2023-03-23T11:39:00;17.90;95.40
8105;DHT22;4095;48.942;9.104;2023-03-23T11:41:33;18.00;95.10
8105;DHT22;4095;48.942;9.104;2023-03-23T11:44:03;18.00;95.20
8105;DHT22;4095;48.942;9.104;2023-03-23T11:49:20;18.30;95.50
8105;DHT22;4095;48.942;9.104;2023-03-23T11:51:51;18.30;95.30
8105;DHT22;4095;48.942;9.104;2023-03-23T11:54:40;18.50;94.90
8105;DHT22;4095;48.942;9.104;2023-03-23T11:57:11;18.50;95.00
8105;DHT22;4095;48.942;9.104;2023-03-23T11:59:38;18.50;95.00
8105;DHT22;4095;48.942;9.104;2023-03-23T12:10:58;18.60;94.80
8105;DHT22;4095;48.942;9.104;2023-03-23T12:30:15;19.30;93.60
8105;DHT22;4095;48.942;9.104;2023-03-23T12:44:39;21.10;91.80
8105;DHT22;4095;48.942;9.104;2023-03-23T12:47:32;21.00;92.30
8105;DHT22;4095;48.942;9.104;2023-03-23T12:50:24;21.00;91.70
8105;DHT22;4095;48.942;9.104;2023-03-23T12:53:04;21.00;91.80
8105;DHT22;4095;48.942;9.104;2023-03-23T12:58:15;20.60;91.60
8105;DHT22;4095;48.942;9.104;2023-03-23T13:00:59;20.40;91.60
8105;DHT22;4095;48.942;9.104;2023-03-23T13:11:42;20.10;92.20
8105;DHT22;4095;48.942;9.104;2023-03-23T13:14:26;20.00;92.20
8105;DHT22;4095;48.942;9.104;2023-03-23T13:17:30;20.10;92.70
8105;DHT22;4095;48.942;9.104;2023-03-23T13:23:19;20.10;92.30
8105;DHT22;4095;48.942;9.104;2023-03-23T13:28:34;20.20;92.20
8105;DHT22;4095;48.942;9.104;2023-03-23T13:31:16;20.20;91.90
8105;DHT22;4095;48.942;9.104;2023-03-23T13:34:10;20.10;92.20
8105;DHT22;4095;48.942;9.104;2023-03-23T13:36:39;19.90;92.10
8105;DHT22;4095;48.942;9.104;2023-03-23T13:39:20;19.90;92.10
8105;DHT22;4095;48.942;9.104;2023-03-23T13:50:02;19.60;92.70
8105;DHT22;4095;48.942;9.104;2023-03-23T13:52:51;19.50;92.80
8105;DHT22;4095;48.942;9.104;2023-03-23T13:56:03;19.40;92.90
8105;DHT22;4095;48.942;9.104;2023-03-23T13:58:25;19.30;92.90
8105;DHT22;4095;48.942;9.104;2023-03-23T14:10:59;19.50;92.90
8105;DHT22;4095;48.942;9.104;2023-03-23T14:13:45;19.50;92.90
8105;DHT22;4095;48.942;9.104;2023-03-23T14:16:28;19.40;92.90
8105;DHT22;4095;48.942;9.104;2023-03-23T14:18:59;19.40;92.70
8105;DHT22;4095;48.942;9.104;2023-03-23T14:23:53;19.40;93.20
8105;DHT22;4095;48.942;9.104;2023-03-23T14:26:21;19.50;93.20
8105;DHT22;4095;48.942;9.104;2023-03-23T14:28:50;19.50;93.80
8105;DHT22;4095;48.942;9.104;2023-03-23T14:31:27;19.50;93.30
8105;DHT22;4095;48.942;9.104;2023-03-23T14:33:55;19.50;93.00
8105;DHT22;4095;48.942;9.104;2023-03-23T14:36:28;19.50;93.20
8105;DHT22;4095;48.942;9.104;2023-03-23T14:39:04;19.50;93.10
8105;DHT22;4095;48.942;9.104;2023-03-23T14:41:33;19.40;92.90
8105;DHT22;4095;48.942;9.104;2023-03-23T14:44:01;19.30;93.40
8105;DHT22;4095;48.942;9.104;2023-03-23T14:46:27;19.30;93.10
8105;DHT22;4095;48.942;9.104;2023-03-23T14:48:54;19.30;93.70
8105;DHT22;4095;48.942;9.104;2023-03-23T14:51:20;19.30;94.00
8105;DHT22;4095;48.942;9.104;2023-03-23T14:53:46;19.30;93.50
8105;DHT22;4095;48.942;9.104;2023-03-23T14:56:18;19.30;93.20
8105;DHT22;4095;48.942;9.104;2023-03-23T14:58:48;19.30;93.60
8105;DHT22;4095;48.942;9.104;2023-03-23T15:01:20;19.30;93.10
8105;DHT22;4095;48.942;9.104;2023-03-23T15:04:14;19.30;93.00
8105;DHT22;4095;48.942;9.104;2023-03-23T15:06:46;19.30;93.00
8105;DHT22;4095;48.942;9.104;2023-03-23T15:09:17;19.30;93.20
8105;DHT22;4095;48.942;9.104;2023-03-23T15:11:57;19.20;92.80
8105;DHT22;4095;48.942;9.104;2023-03-23T15:14:32;19.20;93.20
8105;DHT22;4095;48.942;9.104;2023-03-23T15:17:00;19.30;93.80
8105;DHT22;4095;48.942;9.104;2023-03-23T15:19:37;19.20;93.60
8105;DHT22;4095;48.942;9.104;2023-03-23T15:24:44;19.30;93.90
8105;DHT22;4095;48.942;9.104;2023-03-23T15:29:46;19.20;93.30
8105;DHT22;4095;48.942;9.104;2023-03-23T15:32:12;19.10;94.30
8105;DHT22;4095;48.942;9.104;2023-03-23T15:34:38;19.10;94.50
8105;DHT22;4095;48.942;9.104;2023-03-23T15:37:18;19.00;94.60
8105;DHT22;4095;48.942;9.104;2023-03-23T15:39:45;19.00;94.90
8105;DHT22;4095;48.942;9.104;2023-03-23T15:42:30;18.90;95.10
8105;DHT22;4095;48.942;9.104;2023-03-23T15:45:23;18.90;94.90
8105;DHT22;4095;48.942;9.104;2023-03-23T15:47:50;18.80;95.00
8105;DHT22;4095;48.942;9.104;2023-03-23T15:50:19;18.80;95.10
8105;DHT22;4095;48.942;9.104;2023-03-23T15:52:45;18.70;95.00
8105;DHT22;4095;48.942;9.104;2023-03-23T15:57:50;18.70;95.30
8105;DHT22;4095;48.942;9.104;2023-03-23T16:00:17;18.60;95.00
8105;DHT22;4095;48.942;9.104;2023-03-23T16:02:45;18.60;95.00
8105;DHT22;4095;48.942;9.104;2023-03-23T16:05:12;18.60;95.20
8105;DHT22;4095;48.942;9.104;2023-03-23T16:07:37;18.70;94.90
8105;DHT22;4095;48.942;9.104;2023-03-23T16:10:05;18.60;95.20
8105;DHT22;4095;48.942;9.104;2023-03-23T16:12:30;18.60;95.20
8105;DHT22;4095;48.942;9.104;2023-03-23T16:14:56;18.60;95.30
8105;DHT22;4095;48.942;9.104;2023-03-23T16:17:21;18.50;95.20
8105;DHT22;4095;48.942;9.104;2023-03-23T16:19:47;18.50;95.20
8105;DHT22;4095;48.942;9.104;2023-03-23T16:22:13;18.50;95.40
8105;DHT22;4095;48.942;9.104;2023-03-23T16:24:38;18.50;95.20
8105;DHT22;4095;48.942;9.104;2023-03-23T16:27:04;18.50;95.30
8105;DHT22;4095;48.942;9.104;2023-03-23T16:29:30;18.50;95.50
8105;DHT22;4095;48.942;9.104;2023-03-23T16:31:56;18.50;95.70
8105;DHT22;4095;48.942;9.104;2023-03-23T16:34:22;18.40;95.50
8105;DHT22;4095;48.942;9.104;2023-03-23T16:36:47;18.40;95.50
8105;DHT22;4095;48.942;9.104;2023-03-23T16:39:13;18.40;95.60
8105;DHT22;4095;48.942;9.104;2023-03-23T16:41:43;18.40;95.50
8105;DHT22;4095;48.942;9.104;2023-03-23T16:44:09;18.40;95.50
8105;DHT22;4095;48.942;9.104;2023-03-23T16:46:35;18.40;95.60
8105;DHT22;4095;48.942;9.104;2023-03-23T16:49:01;18.30;95.80
8105;DHT22;4095;48.942;9.104;2023-03-23T16:51:27;18.30;95.80
8105;DHT22;4095;48.942;9.104;2023-03-23T16:53:52;18.20;95.60
8105;DHT22;4095;48.942;9.104;2023-03-23T16:56:18;18.20;95.60
8105;DHT22;4095;48.942;9.104;2023-03-23T16:58:43;18.20;95.60
8105;DHT22;4095;48.942;9.104;2023-03-23T17:01:09;18.20;96.00
8105;DHT22;4095;48.942;9.104;2023-03-23T17:03:35;18.10;95.90
8105;DHT22;4095;48.942;9.104;2023-03-23T17:06:00;18.10;96.30
8105;DHT22;4095;48.942;9.104;2023-03-23T17:08:26;18.10;96.00
8105;DHT22;4095;48.942;9.104;2023-03-23T17:10:52;18.00;95.60
8105;DHT22;4095;48.942;9.104;2023-03-23T17:13:18;18.00;95.60
8105;DHT22;4095;48.942;9.104;2023-03-23T17:15:44;17.90;95.70
8105;DHT22;4095;48.942;9.104;2023-03-23T17:18:11;17.90;96.20
8105;DHT22;4095;48.942;9.104;2023-03-23T17:20:37;17.80;96.20
8105;DHT22;4095;48.942;9.104;2023-03-23T17:23:03;17.80;96.30
8105;DHT22;4095;48.942;9.104;2023-03-23T17:25:29;17.80;96.00
8105;DHT22;4095;48.942;9.104;2023-03-23T17:27:55;17.70;95.80
8105;DHT22;4095;48.942;9.104;2023-03-23T17:30:21;17.70;96.10
8105;DHT22;4095;48.942;9.104;2023-03-23T17:32:47;17.70;96.10
8105;DHT22;4095;48.942;9.104;2023-03-23T17:35:13;17.70;96.10
8105;DHT22;4095;48.942;9.104;2023-03-23T17:37:38;17.60;96.00
8105;DHT22;4095;48.942;9.104;2023-03-23T17:40:05;17.60;96.40
8105;DHT22;4095;48.942;9.104;2023-03-23T17:42:34;17.50;96.40
8105;DHT22;4095;48.942;9.104;2023-03-23T17:45:00;17.50;96.30
8105;DHT22;4095;48.942;9.104;2023-03-23T17:47:26;17.50;96.40
8105;DHT22;4095;48.942;9.104;2023-03-23T17:49:52;17.50;96.20
8105;DHT22;4095;48.942;9.104;2023-03-23T17:52:17;17.40;96.30
8105;DHT22;4095;48.942;9.104;2023-03-23T17:54:43;17.40;96.40
8105;DHT22;4095;48.942;9.104;2023-03-23T17:57:09;17.40;96.50
8105;DHT22;4095;48.942;9.104;2023-03-23T17:59:35;17.40;96.60
8105;DHT22;4095;48.942;9.104;2023-03-23T18:02:00;17.40;96.70
8105;DHT22;4095;48.942;9.104;2023-03-23T18:04:26;17.30;96.60
8105;DHT22;4095;48.942;9.104;2023-03-23T18:06:54;17.30;96.70
8105;DHT22;4095;48.942;9.104;2023-03-23T18:09:21;17.30;96.90
8105;DHT22;4095;48.942;9.104;2023-03-23T18:11:46;17.30;97.10
8105;DHT22;4095;48.942;9.104;2023-03-23T18:14:12;17.30;96.90
8105;DHT22;4095;48.942;9.104;2023-03-23T18:16:38;17.30;96.80
8105;DHT22;4095;48.942;9.104;2023-03-23T18:19:03;17.30;95.80
8105;DHT22;4095;48.942;9.104;2023-03-23T18:21:29;17.20;94.70
8105;DHT22;4095;48.942;9.104;2023-03-23T18:23:54;17.30;93.90
8105;DHT22;4095;48.942;9.104;2023-03-23T18:26:20;17.30;93.20
8105;DHT22;4095;48.942;9.104;2023-03-23T18:28:46;17.40;92.80